Aviation Digital Data Service (ADDS)

Output produced by METARs form (2314 UTC 18 August 2019)
found at http://www.aviationweather.gov/metar/data/
 
Forecast for: ZGGG (GUANGZHOU/BAIYUN, CN)
Text: TAF ZGGG 182102Z 1900/1924 24003MPS 8000 SCT040 TX31/1907Z TN26/1922Z
Forecast period: 0000 UTC 19 August 2019 to 0000 UTC 20 August 2019
Forecast type: FROM: standard forecast or significant change
Winds: from the WSW (240 degrees) at 7 MPH (6 knots; 3.1 m/s)
Visibility: 5 miles (8 km)
Ceiling: at least 12,000 feet AGL
Clouds: scattered clouds at 4000 feet AGL
Weather: no significant weather forecast for this period
Text: TEMPO 1906/1912 2500 TSRA SCT011 SCT030CB BKN033
Forecast period: 0600 to 1200 UTC 19 August 2019
Forecast type: TEMPORARY: The following changes expected for less than half the time period
Visibility: 1.55 miles (2.49 km)
Ceiling: 3300 feet AGL
Clouds: scattered clouds at 1100 feet AGL
scattered clouds at 3000 feet AGL
broken clouds at 3300 feet AGL
Weather: TSRA  (rain associated with thunderstorm(s))